sensor_id;sensor_type;location;lat;lon;timestamp;pressure;altitude;pressure_sealevel;temperature
71463;BMP180;59266;52.608;13.260;2024-02-16T00:02:14;101197.00;;;10.40
71463;BMP180;59266;52.608;13.260;2024-02-16T00:04:41;101194.00;;;10.50
71463;BMP180;59266;52.608;13.260;2024-02-16T00:07:08;101201.00;;;10.50
71463;BMP180;59266;52.608;13.260;2024-02-16T00:09:35;101197.00;;;10.40
71463;BMP180;59266;52.608;13.260;2024-02-16T00:12:02;101194.00;;;10.50
71463;BMP180;59266;52.608;13.260;2024-02-16T00:14:29;101191.00;;;10.50
71463;BMP180;59266;52.608;13.260;2024-02-16T00:16:55;101188.00;;;10.30
71463;BMP180;59266;52.608;13.260;2024-02-16T00:19:23;101183.00;;;10.30
71463;BMP180;59266;52.608;13.260;2024-02-16T00:21:50;101178.00;;;10.30
71463;BMP180;59266;52.608;13.260;2024-02-16T00:24:17;101180.00;;;10.20
71463;BMP180;59266;52.608;13.260;2024-02-16T00:26:44;101187.00;;;10.30
71463;BMP180;59266;52.608;13.260;2024-02-16T00:29:12;101179.00;;;10.20
71463;BMP180;59266;52.608;13.260;2024-02-16T00:31:38;101189.00;;;10.10
71463;BMP180;59266;52.608;13.260;2024-02-16T00:34:05;101192.00;;;10.10
71463;BMP180;59266;52.608;13.260;2024-02-16T00:36:32;101194.00;;;10.10
71463;BMP180;59266;52.608;13.260;2024-02-16T00:39:00;101190.00;;;10.10
71463;BMP180;59266;52.608;13.260;2024-02-16T00:41:27;101192.00;;;10.00
71463;BMP180;59266;52.608;13.260;2024-02-16T00:43:53;101191.00;;;10.10
71463;BMP180;59266;52.608;13.260;2024-02-16T00:46:20;101197.00;;;10.10
71463;BMP180;59266;52.608;13.260;2024-02-16T00:48:50;101199.00;;;10.10
71463;BMP180;59266;52.608;13.260;2024-02-16T00:51:20;101184.00;;;10.10
71463;BMP180;59266;52.608;13.260;2024-02-16T00:53:47;101191.00;;;10.10
71463;BMP180;59266;52.608;13.260;2024-02-16T00:56:13;101185.00;;;10.10
71463;BMP180;59266;52.608;13.260;2024-02-16T00:58:40;101186.00;;;10.10
71463;BMP180;59266;52.608;13.260;2024-02-16T01:01:10;101178.00;;;10.10
71463;BMP180;59266;52.608;13.260;2024-02-16T01:03:38;101175.00;;;10.00
71463;BMP180;59266;52.608;13.260;2024-02-16T01:06:06;101164.00;;;10.00
71463;BMP180;59266;52.608;13.260;2024-02-16T01:08:33;101163.00;;;9.80
71463;BMP180;59266;52.608;13.260;2024-02-16T01:10:59;101155.00;;;9.80
71463;BMP180;59266;52.608;13.260;2024-02-16T01:13:26;101156.00;;;9.80
71463;BMP180;59266;52.608;13.260;2024-02-16T01:15:54;101164.00;;;9.80
71463;BMP180;59266;52.608;13.260;2024-02-16T01:18:20;101172.00;;;9.80
71463;BMP180;59266;52.608;13.260;2024-02-16T01:20:47;101160.00;;;9.80
71463;BMP180;59266;52.608;13.260;2024-02-16T01:23:14;101158.00;;;9.80
71463;BMP180;59266;52.608;13.260;2024-02-16T01:25:40;101158.00;;;9.80
71463;BMP180;59266;52.608;13.260;2024-02-16T01:28:07;101156.00;;;9.70
71463;BMP180;59266;52.608;13.260;2024-02-16T01:30:34;101158.00;;;9.80
71463;BMP180;59266;52.608;13.260;2024-02-16T01:33:00;101155.00;;;9.80
71463;BMP180;59266;52.608;13.260;2024-02-16T01:35:27;101155.00;;;9.70
71463;BMP180;59266;52.608;13.260;2024-02-16T01:37:54;101148.00;;;9.60
71463;BMP180;59266;52.608;13.260;2024-02-16T01:40:20;101146.00;;;9.60
71463;BMP180;59266;52.608;13.260;2024-02-16T01:42:47;101144.00;;;9.60
71463;BMP180;59266;52.608;13.260;2024-02-16T01:45:14;101144.00;;;9.60
71463;BMP180;59266;52.608;13.260;2024-02-16T01:47:43;101136.00;;;9.50
71463;BMP180;59266;52.608;13.260;2024-02-16T01:50:10;101136.00;;;9.50
71463;BMP180;59266;52.608;13.260;2024-02-16T01:52:37;101129.00;;;9.50
71463;BMP180;59266;52.608;13.260;2024-02-16T01:55:05;101124.00;;;9.50
71463;BMP180;59266;52.608;13.260;2024-02-16T01:57:36;101128.00;;;9.40
71463;BMP180;59266;52.608;13.260;2024-02-16T02:00:05;101115.00;;;9.50
71463;BMP180;59266;52.608;13.260;2024-02-16T02:02:34;101113.00;;;9.50
71463;BMP180;59266;52.608;13.260;2024-02-16T02:05:03;101109.00;;;9.50
71463;BMP180;59266;52.608;13.260;2024-02-16T02:07:30;101091.00;;;9.50
71463;BMP180;59266;52.608;13.260;2024-02-16T02:09:57;101087.00;;;9.50
71463;BMP180;59266;52.608;13.260;2024-02-16T02:12:23;101081.00;;;9.60
71463;BMP180;59266;52.608;13.260;2024-02-16T02:14:50;101081.00;;;9.60
71463;BMP180;59266;52.608;13.260;2024-02-16T02:17:17;101081.00;;;9.60
71463;BMP180;59266;52.608;13.260;2024-02-16T02:19:45;101075.00;;;9.60
71463;BMP180;59266;52.608;13.260;2024-02-16T02:22:19;101072.00;;;9.60
71463;BMP180;59266;52.608;13.260;2024-02-16T02:24:47;101078.00;;;9.60
71463;BMP180;59266;52.608;13.260;2024-02-16T02:27:14;101066.00;;;9.70
71463;BMP180;59266;52.608;13.260;2024-02-16T02:29:41;101068.00;;;9.70
71463;BMP180;59266;52.608;13.260;2024-02-16T02:32:08;101069.00;;;9.80
71463;BMP180;59266;52.608;13.260;2024-02-16T02:34:36;101068.00;;;9.80
71463;BMP180;59266;52.608;13.260;2024-02-16T02:37:05;101066.00;;;9.80
71463;BMP180;59266;52.608;13.260;2024-02-16T02:39:32;101061.00;;;9.80
71463;BMP180;59266;52.608;13.260;2024-02-16T02:41:59;101073.00;;;9.90
71463;BMP180;59266;52.608;13.260;2024-02-16T02:44:26;101063.00;;;9.90
71463;BMP180;59266;52.608;13.260;2024-02-16T02:46:52;101070.00;;;9.90
71463;BMP180;59266;52.608;13.260;2024-02-16T02:49:19;101076.00;;;9.80
71463;BMP180;59266;52.608;13.260;2024-02-16T02:51:49;101067.00;;;9.80
71463;BMP180;59266;52.608;13.260;2024-02-16T02:54:15;101071.00;;;9.80
71463;BMP180;59266;52.608;13.260;2024-02-16T02:56:43;101064.00;;;9.80
71463;BMP180;59266;52.608;13.260;2024-02-16T02:59:09;101070.00;;;9.80
71463;BMP180;59266;52.608;13.260;2024-02-16T03:01:37;101063.00;;;9.70
71463;BMP180;59266;52.608;13.260;2024-02-16T03:04:04;101067.00;;;9.70
71463;BMP180;59266;52.608;13.260;2024-02-16T03:06:31;101072.00;;;9.70
71463;BMP180;59266;52.608;13.260;2024-02-16T03:08:58;101071.00;;;9.60
71463;BMP180;59266;52.608;13.260;2024-02-16T03:11:24;101072.00;;;9.60
71463;BMP180;59266;52.608;13.260;2024-02-16T03:13:52;101071.00;;;9.60
71463;BMP180;59266;52.608;13.260;2024-02-16T03:16:18;101067.00;;;9.50
71463;BMP180;59266;52.608;13.260;2024-02-16T03:18:45;101064.00;;;9.50
71463;BMP180;59266;52.608;13.260;2024-02-16T03:21:13;101050.00;;;9.50
71463;BMP180;59266;52.608;13.260;2024-02-16T03:23:43;101049.00;;;9.40
71463;BMP180;59266;52.608;13.260;2024-02-16T03:26:16;101048.00;;;9.50
71463;BMP180;59266;52.608;13.260;2024-02-16T03:28:44;101046.00;;;9.50
71463;BMP180;59266;52.608;13.260;2024-02-16T03:31:21;101044.00;;;9.50
71463;BMP180;59266;52.608;13.260;2024-02-16T03:33:49;101048.00;;;9.60
71463;BMP180;59266;52.608;13.260;2024-02-16T03:36:17;101037.00;;;9.50
71463;BMP180;59266;52.608;13.260;2024-02-16T03:38:45;101045.00;;;9.50
71463;BMP180;59266;52.608;13.260;2024-02-16T03:41:14;101041.00;;;9.60
71463;BMP180;59266;52.608;13.260;2024-02-16T03:43:41;101048.00;;;9.60
71463;BMP180;59266;52.608;13.260;2024-02-16T03:46:07;101047.00;;;9.50
71463;BMP180;59266;52.608;13.260;2024-02-16T03:48:34;101047.00;;;9.50
71463;BMP180;59266;52.608;13.260;2024-02-16T03:51:01;101050.00;;;9.50
71463;BMP180;59266;52.608;13.260;2024-02-16T03:53:29;101034.00;;;9.50
71463;BMP180;59266;52.608;13.260;2024-02-16T03:55:56;101034.00;;;9.50
71463;BMP180;59266;52.608;13.260;2024-02-16T03:58:23;101024.00;;;9.50
71463;BMP180;59266;52.608;13.260;2024-02-16T04:00:50;101030.00;;;9.50
71463;BMP180;59266;52.608;13.260;2024-02-16T04:03:16;101028.00;;;9.50
71463;BMP180;59266;52.608;13.260;2024-02-16T04:05:43;101030.00;;;9.50
71463;BMP180;59266;52.608;13.260;2024-02-16T04:08:10;101028.00;;;9.50
71463;BMP180;59266;52.608;13.260;2024-02-16T04:10:36;101034.00;;;9.50
71463;BMP180;59266;52.608;13.260;2024-02-16T04:13:03;101024.00;;;9.40
71463;BMP180;59266;52.608;13.260;2024-02-16T04:15:30;101018.00;;;9.50
71463;BMP180;59266;52.608;13.260;2024-02-16T04:17:57;101014.00;;;9.50
71463;BMP180;59266;52.608;13.260;2024-02-16T04:20:24;101016.00;;;9.50
71463;BMP180;59266;52.608;13.260;2024-02-16T04:22:50;101013.00;;;9.60
71463;BMP180;59266;52.608;13.260;2024-02-16T04:25:17;101006.00;;;9.50
71463;BMP180;59266;52.608;13.260;2024-02-16T04:27:44;101010.00;;;9.50
71463;BMP180;59266;52.608;13.260;2024-02-16T04:30:11;101015.00;;;9.50
71463;BMP180;59266;52.608;13.260;2024-02-16T04:32:37;101010.00;;;9.50
71463;BMP180;59266;52.608;13.260;2024-02-16T04:35:04;101008.00;;;9.60
71463;BMP180;59266;52.608;13.260;2024-02-16T04:37:31;101001.00;;;9.50
71463;BMP180;59266;52.608;13.260;2024-02-16T04:39:58;100998.00;;;9.50
71463;BMP180;59266;52.608;13.260;2024-02-16T04:42:25;101006.00;;;9.60
71463;BMP180;59266;52.608;13.260;2024-02-16T04:44:51;101003.00;;;9.60
71463;BMP180;59266;52.608;13.260;2024-02-16T04:47:18;100992.00;;;9.50
71463;BMP180;59266;52.608;13.260;2024-02-16T04:49:46;100994.00;;;9.50
71463;BMP180;59266;52.608;13.260;2024-02-16T04:52:12;100994.00;;;9.50
71463;BMP180;59266;52.608;13.260;2024-02-16T04:54:39;101003.00;;;9.50
71463;BMP180;59266;52.608;13.260;2024-02-16T04:57:07;100989.00;;;9.50
71463;BMP180;59266;52.608;13.260;2024-02-16T04:59:34;100987.00;;;9.50
71463;BMP180;59266;52.608;13.260;2024-02-16T05:02:01;100982.00;;;9.50
71463;BMP180;59266;52.608;13.260;2024-02-16T05:04:27;100983.00;;;9.50
71463;BMP180;59266;52.608;13.260;2024-02-16T05:06:54;100979.00;;;9.40
71463;BMP180;59266;52.608;13.260;2024-02-16T05:09:24;100985.00;;;9.40
71463;BMP180;59266;52.608;13.260;2024-02-16T05:11:52;100980.00;;;9.30
71463;BMP180;59266;52.608;13.260;2024-02-16T05:14:19;100983.00;;;9.30
71463;BMP180;59266;52.608;13.260;2024-02-16T05:16:46;100985.00;;;9.30
71463;BMP180;59266;52.608;13.260;2024-02-16T05:19:13;100988.00;;;9.40
71463;BMP180;59266;52.608;13.260;2024-02-16T05:21:40;100985.00;;;9.30
71463;BMP180;59266;52.608;13.260;2024-02-16T05:24:07;100980.00;;;9.30
71463;BMP180;59266;52.608;13.260;2024-02-16T05:26:34;100966.00;;;9.20
71463;BMP180;59266;52.608;13.260;2024-02-16T05:29:00;100966.00;;;9.20
71463;BMP180;59266;52.608;13.260;2024-02-16T05:31:28;100952.00;;;9.30
71463;BMP180;59266;52.608;13.260;2024-02-16T05:33:55;100943.00;;;9.30
71463;BMP180;59266;52.608;13.260;2024-02-16T05:36:22;100953.00;;;9.30
71463;BMP180;59266;52.608;13.260;2024-02-16T05:38:53;100959.00;;;9.30
71463;BMP180;59266;52.608;13.260;2024-02-16T05:41:22;100961.00;;;9.30
71463;BMP180;59266;52.608;13.260;2024-02-16T05:43:49;100968.00;;;9.30
71463;BMP180;59266;52.608;13.260;2024-02-16T05:46:16;100972.00;;;9.30
71463;BMP180;59266;52.608;13.260;2024-02-16T05:48:44;100968.00;;;9.30
71463;BMP180;59266;52.608;13.260;2024-02-16T05:51:11;100974.00;;;9.30
71463;BMP180;59266;52.608;13.260;2024-02-16T05:53:41;100978.00;;;9.30
71463;BMP180;59266;52.608;13.260;2024-02-16T05:56:08;100959.00;;;9.20
71463;BMP180;59266;52.608;13.260;2024-02-16T05:58:36;100958.00;;;9.20
71463;BMP180;59266;52.608;13.260;2024-02-16T06:01:03;100933.00;;;9.20
71463;BMP180;59266;52.608;13.260;2024-02-16T06:03:30;100937.00;;;9.20
71463;BMP180;59266;52.608;13.260;2024-02-16T06:05:57;100942.00;;;9.30
71463;BMP180;59266;52.608;13.260;2024-02-16T06:08:23;100940.00;;;9.20
71463;BMP180;59266;52.608;13.260;2024-02-16T06:10:53;100947.00;;;9.30
71463;BMP180;59266;52.608;13.260;2024-02-16T06:13:23;100934.00;;;9.20
71463;BMP180;59266;52.608;13.260;2024-02-16T06:15:52;100937.00;;;9.20
71463;BMP180;59266;52.608;13.260;2024-02-16T06:18:18;100935.00;;;9.20
71463;BMP180;59266;52.608;13.260;2024-02-16T06:20:46;100930.00;;;9.30
71463;BMP180;59266;52.608;13.260;2024-02-16T06:23:12;100940.00;;;9.30
71463;BMP180;59266;52.608;13.260;2024-02-16T06:25:39;100961.00;;;9.30
71463;BMP180;59266;52.608;13.260;2024-02-16T06:28:05;100958.00;;;9.30
71463;BMP180;59266;52.608;13.260;2024-02-16T06:30:32;100965.00;;;9.30
71463;BMP180;59266;52.608;13.260;2024-02-16T06:32:59;100958.00;;;9.30
71463;BMP180;59266;52.608;13.260;2024-02-16T06:35:27;100957.00;;;9.20
71463;BMP180;59266;52.608;13.260;2024-02-16T06:37:53;100966.00;;;9.20
71463;BMP180;59266;52.608;13.260;2024-02-16T06:40:20;100961.00;;;9.30
71463;BMP180;59266;52.608;13.260;2024-02-16T06:42:47;100961.00;;;9.20
71463;BMP180;59266;52.608;13.260;2024-02-16T06:45:14;100967.00;;;9.30
71463;BMP180;59266;52.608;13.260;2024-02-16T06:47:40;100961.00;;;9.20
71463;BMP180;59266;52.608;13.260;2024-02-16T06:50:07;100952.00;;;9.20
71463;BMP180;59266;52.608;13.260;2024-02-16T06:52:34;100950.00;;;9.30
71463;BMP180;59266;52.608;13.260;2024-02-16T06:55:01;100950.00;;;9.30
71463;BMP180;59266;52.608;13.260;2024-02-16T06:57:28;100951.00;;;9.40
71463;BMP180;59266;52.608;13.260;2024-02-16T06:59:55;100948.00;;;9.40
71463;BMP180;59266;52.608;13.260;2024-02-16T07:02:24;100949.00;;;9.50
71463;BMP180;59266;52.608;13.260;2024-02-16T07:04:51;100941.00;;;9.60
71463;BMP180;59266;52.608;13.260;2024-02-16T07:07:18;100946.00;;;9.70
71463;BMP180;59266;52.608;13.260;2024-02-16T07:09:45;100946.00;;;9.70
71463;BMP180;59266;52.608;13.260;2024-02-16T07:12:12;100940.00;;;9.80
71463;BMP180;59266;52.608;13.260;2024-02-16T07:14:39;100944.00;;;9.90
71463;BMP180;59266;52.608;13.260;2024-02-16T07:17:06;100950.00;;;10.00
71463;BMP180;59266;52.608;13.260;2024-02-16T07:19:36;100940.00;;;10.20
71463;BMP180;59266;52.608;13.260;2024-02-16T07:22:04;100936.00;;;10.50
71463;BMP180;59266;52.608;13.260;2024-02-16T07:24:33;100934.00;;;10.40
71463;BMP180;59266;52.608;13.260;2024-02-16T07:27:00;100923.00;;;11.20
71463;BMP180;59266;52.608;13.260;2024-02-16T07:29:28;100929.00;;;11.50
71463;BMP180;59266;52.608;13.260;2024-02-16T07:31:55;100924.00;;;11.80
71463;BMP180;59266;52.608;13.260;2024-02-16T07:34:22;100931.00;;;11.70
71463;BMP180;59266;52.608;13.260;2024-02-16T07:36:49;100928.00;;;11.30
71463;BMP180;59266;52.608;13.260;2024-02-16T07:39:16;100912.00;;;11.60
71463;BMP180;59266;52.608;13.260;2024-02-16T07:41:43;100918.00;;;12.20
71463;BMP180;59266;52.608;13.260;2024-02-16T07:44:09;100937.00;;;12.80
71463;BMP180;59266;52.608;13.260;2024-02-16T07:46:42;100932.00;;;12.40
71463;BMP180;59266;52.608;13.260;2024-02-16T07:49:09;100945.00;;;12.30
71463;BMP180;59266;52.608;13.260;2024-02-16T07:51:39;100940.00;;;12.30
71463;BMP180;59266;52.608;13.260;2024-02-16T07:54:08;100946.00;;;12.20
71463;BMP180;59266;52.608;13.260;2024-02-16T07:56:36;100939.00;;;13.90
71463;BMP180;59266;52.608;13.260;2024-02-16T07:59:02;100935.00;;;16.50
71463;BMP180;59266;52.608;13.260;2024-02-16T08:01:29;100939.00;;;17.20
71463;BMP180;59266;52.608;13.260;2024-02-16T08:03:55;100948.00;;;16.50
71463;BMP180;59266;52.608;13.260;2024-02-16T08:06:26;100954.00;;;16.40
71463;BMP180;59266;52.608;13.260;2024-02-16T08:08:54;100943.00;;;16.40
71463;BMP180;59266;52.608;13.260;2024-02-16T08:11:21;100953.00;;;16.60
71463;BMP180;59266;52.608;13.260;2024-02-16T08:13:48;100952.00;;;16.20
71463;BMP180;59266;52.608;13.260;2024-02-16T08:16:14;100943.00;;;17.50
71463;BMP180;59266;52.608;13.260;2024-02-16T08:18:43;100952.00;;;17.90
71463;BMP180;59266;52.608;13.260;2024-02-16T08:21:10;100952.00;;;18.40
71463;BMP180;59266;52.608;13.260;2024-02-16T08:23:37;100962.00;;;18.10
71463;BMP180;59266;52.608;13.260;2024-02-16T08:26:04;100961.00;;;16.80
71463;BMP180;59266;52.608;13.260;2024-02-16T08:28:30;100957.00;;;16.50
71463;BMP180;59266;52.608;13.260;2024-02-16T08:30:57;100957.00;;;16.50
71463;BMP180;59266;52.608;13.260;2024-02-16T08:33:24;100961.00;;;17.70
71463;BMP180;59266;52.608;13.260;2024-02-16T08:35:51;100962.00;;;18.00
71463;BMP180;59266;52.608;13.260;2024-02-16T08:38:18;100960.00;;;16.80
71463;BMP180;59266;52.608;13.260;2024-02-16T08:40:44;100953.00;;;15.60
71463;BMP180;59266;52.608;13.260;2024-02-16T08:43:11;100943.00;;;14.80
71463;BMP180;59266;52.608;13.260;2024-02-16T08:45:37;100940.00;;;14.50
71463;BMP180;59266;52.608;13.260;2024-02-16T08:48:04;100939.00;;;14.50
71463;BMP180;59266;52.608;13.260;2024-02-16T08:50:31;100933.00;;;14.80
71463;BMP180;59266;52.608;13.260;2024-02-16T08:52:58;100941.00;;;14.40
71463;BMP180;59266;52.608;13.260;2024-02-16T08:55:24;100935.00;;;14.60
71463;BMP180;59266;52.608;13.260;2024-02-16T08:57:51;100932.00;;;13.90
71463;BMP180;59266;52.608;13.260;2024-02-16T09:00:19;100931.00;;;14.30
71463;BMP180;59266;52.608;13.260;2024-02-16T09:02:46;100933.00;;;14.00
71463;BMP180;59266;52.608;13.260;2024-02-16T09:05:13;100927.00;;;14.10
71463;BMP180;59266;52.608;13.260;2024-02-16T09:07:40;100933.00;;;14.40
71463;BMP180;59266;52.608;13.260;2024-02-16T09:10:07;100927.00;;;14.40
71463;BMP180;59266;52.608;13.260;2024-02-16T09:12:34;100926.00;;;14.30
71463;BMP180;59266;52.608;13.260;2024-02-16T09:15:01;100936.00;;;14.30
71463;BMP180;59266;52.608;13.260;2024-02-16T09:17:27;100936.00;;;14.50
71463;BMP180;59266;52.608;13.260;2024-02-16T09:19:54;100937.00;;;14.60
71463;BMP180;59266;52.608;13.260;2024-02-16T09:22:21;100931.00;;;14.60
71463;BMP180;59266;52.608;13.260;2024-02-16T09:25:02;100935.00;;;14.50
71463;BMP180;59266;52.608;13.260;2024-02-16T09:27:29;100927.00;;;14.30
71463;BMP180;59266;52.608;13.260;2024-02-16T09:29:56;100929.00;;;14.40
71463;BMP180;59266;52.608;13.260;2024-02-16T09:32:23;100925.00;;;14.40
71463;BMP180;59266;52.608;13.260;2024-02-16T09:34:49;100927.00;;;14.70
71463;BMP180;59266;52.608;13.260;2024-02-16T09:37:17;100930.00;;;14.50
71463;BMP180;59266;52.608;13.260;2024-02-16T09:39:44;100922.00;;;14.80
71463;BMP180;59266;52.608;13.260;2024-02-16T09:42:11;100933.00;;;14.60
71463;BMP180;59266;52.608;13.260;2024-02-16T09:44:41;100932.00;;;14.60
71463;BMP180;59266;52.608;13.260;2024-02-16T09:47:09;100946.00;;;14.40
71463;BMP180;59266;52.608;13.260;2024-02-16T09:49:39;100934.00;;;14.40
71463;BMP180;59266;52.608;13.260;2024-02-16T09:52:10;100942.00;;;14.90
71463;BMP180;59266;52.608;13.260;2024-02-16T09:54:40;100932.00;;;15.10
71463;BMP180;59266;52.608;13.260;2024-02-16T09:57:07;100931.00;;;15.20
71463;BMP180;59266;52.608;13.260;2024-02-16T09:59:34;100933.00;;;14.80
71463;BMP180;59266;52.608;13.260;2024-02-16T10:02:02;100934.00;;;14.80
71463;BMP180;59266;52.608;13.260;2024-02-16T10:04:30;100935.00;;;15.00
71463;BMP180;59266;52.608;13.260;2024-02-16T10:07:02;100935.00;;;15.20
71463;BMP180;59266;52.608;13.260;2024-02-16T10:09:30;100939.00;;;15.40
71463;BMP180;59266;52.608;13.260;2024-02-16T10:11:57;100932.00;;;15.30
71463;BMP180;59266;52.608;13.260;2024-02-16T10:14:24;100937.00;;;15.50
71463;BMP180;59266;52.608;13.260;2024-02-16T10:17:02;100943.00;;;15.50
71463;BMP180;59266;52.608;13.260;2024-02-16T10:19:30;100935.00;;;15.30
71463;BMP180;59266;52.608;13.260;2024-02-16T10:22:09;100939.00;;;15.10
71463;BMP180;59266;52.608;13.260;2024-02-16T10:24:39;100954.00;;;15.10
71463;BMP180;59266;52.608;13.260;2024-02-16T10:27:16;100944.00;;;15.20
71463;BMP180;59266;52.608;13.260;2024-02-16T10:29:46;100941.00;;;15.10
71463;BMP180;59266;52.608;13.260;2024-02-16T10:32:13;100937.00;;;15.00
71463;BMP180;59266;52.608;13.260;2024-02-16T10:34:41;100930.00;;;15.00
71463;BMP180;59266;52.608;13.260;2024-02-16T10:37:09;100936.00;;;15.10
71463;BMP180;59266;52.608;13.260;2024-02-16T10:39:36;100933.00;;;15.50
71463;BMP180;59266;52.608;13.260;2024-02-16T10:42:06;100941.00;;;15.40
71463;BMP180;59266;52.608;13.260;2024-02-16T10:44:34;100939.00;;;15.50
71463;BMP180;59266;52.608;13.260;2024-02-16T10:47:02;100940.00;;;15.80
71463;BMP180;59266;52.608;13.260;2024-02-16T10:49:28;100921.00;;;15.80
71463;BMP180;59266;52.608;13.260;2024-02-16T10:51:57;100935.00;;;15.70
71463;BMP180;59266;52.608;13.260;2024-02-16T10:54:27;100930.00;;;15.60
71463;BMP180;59266;52.608;13.260;2024-02-16T10:56:55;100923.00;;;15.80
71463;BMP180;59266;52.608;13.260;2024-02-16T10:59:22;100917.00;;;16.50
71463;BMP180;59266;52.608;13.260;2024-02-16T11:01:59;100916.00;;;15.90
71463;BMP180;59266;52.608;13.260;2024-02-16T11:04:36;100913.00;;;15.70
71463;BMP180;59266;52.608;13.260;2024-02-16T11:07:19;100909.00;;;15.80
71463;BMP180;59266;52.608;13.260;2024-02-16T11:09:46;100918.00;;;17.00
71463;BMP180;59266;52.608;13.260;2024-02-16T11:12:15;100901.00;;;16.40
71463;BMP180;59266;52.608;13.260;2024-02-16T11:14:46;100909.00;;;17.40
71463;BMP180;59266;52.608;13.260;2024-02-16T11:17:19;100903.00;;;19.90
71463;BMP180;59266;52.608;13.260;2024-02-16T11:19:47;100903.00;;;20.50
71463;BMP180;59266;52.608;13.260;2024-02-16T11:22:18;100909.00;;;19.20
71463;BMP180;59266;52.608;13.260;2024-02-16T11:24:47;100912.00;;;18.40
71463;BMP180;59266;52.608;13.260;2024-02-16T11:27:14;100898.00;;;18.30
71463;BMP180;59266;52.608;13.260;2024-02-16T11:29:49;100900.00;;;17.90
71463;BMP180;59266;52.608;13.260;2024-02-16T11:32:18;100903.00;;;18.30
71463;BMP180;59266;52.608;13.260;2024-02-16T11:34:46;100910.00;;;18.00
71463;BMP180;59266;52.608;13.260;2024-02-16T11:37:13;100899.00;;;17.70
71463;BMP180;59266;52.608;13.260;2024-02-16T11:39:41;100904.00;;;17.30
71463;BMP180;59266;52.608;13.260;2024-02-16T11:42:13;100900.00;;;17.30
71463;BMP180;59266;52.608;13.260;2024-02-16T11:44:50;100899.00;;;17.60
71463;BMP180;59266;52.608;13.260;2024-02-16T11:47:22;100908.00;;;17.70
71463;BMP180;59266;52.608;13.260;2024-02-16T11:50:05;100917.00;;;17.40
71463;BMP180;59266;52.608;13.260;2024-02-16T11:52:33;100911.00;;;17.40
71463;BMP180;59266;52.608;13.260;2024-02-16T11:55:01;100908.00;;;17.20
71463;BMP180;59266;52.608;13.260;2024-02-16T11:57:31;100912.00;;;17.10
71463;BMP180;59266;52.608;13.260;2024-02-16T11:59:58;100910.00;;;17.00
71463;BMP180;59266;52.608;13.260;2024-02-16T12:02:25;100914.00;;;16.60
71463;BMP180;59266;52.608;13.260;2024-02-16T12:04:58;100908.00;;;16.50
71463;BMP180;59266;52.608;13.260;2024-02-16T12:07:29;100915.00;;;16.20
71463;BMP180;59266;52.608;13.260;2024-02-16T12:10:02;100915.00;;;16.70
71463;BMP180;59266;52.608;13.260;2024-02-16T12:12:31;100913.00;;;17.20
71463;BMP180;59266;52.608;13.260;2024-02-16T12:14:59;100916.00;;;17.20
71463;BMP180;59266;52.608;13.260;2024-02-16T12:17:25;100909.00;;;17.60
71463;BMP180;59266;52.608;13.260;2024-02-16T12:19:52;100905.00;;;17.40
71463;BMP180;59266;52.608;13.260;2024-02-16T12:22:22;100904.00;;;17.60
71463;BMP180;59266;52.608;13.260;2024-02-16T12:24:50;100906.00;;;17.40
71463;BMP180;59266;52.608;13.260;2024-02-16T12:27:17;100906.00;;;17.00
71463;BMP180;59266;52.608;13.260;2024-02-16T12:29:44;100904.00;;;17.30
71463;BMP180;59266;52.608;13.260;2024-02-16T12:32:13;100908.00;;;17.30
71463;BMP180;59266;52.608;13.260;2024-02-16T12:34:44;100900.00;;;17.30
71463;BMP180;59266;52.608;13.260;2024-02-16T12:37:11;100908.00;;;17.10
71463;BMP180;59266;52.608;13.260;2024-02-16T12:39:38;100896.00;;;17.10
71463;BMP180;59266;52.608;13.260;2024-02-16T12:42:04;100895.00;;;17.20
71463;BMP180;59266;52.608;13.260;2024-02-16T12:44:31;100898.00;;;17.20
71463;BMP180;59266;52.608;13.260;2024-02-16T12:46:58;100898.00;;;17.40
71463;BMP180;59266;52.608;13.260;2024-02-16T12:49:25;100896.00;;;17.10
71463;BMP180;59266;52.608;13.260;2024-02-16T12:51:53;100891.00;;;17.00
71463;BMP180;59266;52.608;13.260;2024-02-16T12:54:20;100894.00;;;17.20
71463;BMP180;59266;52.608;13.260;2024-02-16T12:56:49;100891.00;;;17.30
71463;BMP180;59266;52.608;13.260;2024-02-16T12:59:19;100889.00;;;17.20
71463;BMP180;59266;52.608;13.260;2024-02-16T13:01:46;100894.00;;;17.30
71463;BMP180;59266;52.608;13.260;2024-02-16T13:04:13;100893.00;;;17.20
71463;BMP180;59266;52.608;13.260;2024-02-16T13:06:48;100880.00;;;17.20
71463;BMP180;59266;52.608;13.260;2024-02-16T13:09:15;100879.00;;;17.60
71463;BMP180;59266;52.608;13.260;2024-02-16T13:11:43;100868.00;;;17.80
71463;BMP180;59266;52.608;13.260;2024-02-16T13:14:10;100874.00;;;17.50
71463;BMP180;59266;52.608;13.260;2024-02-16T13:16:37;100861.00;;;17.40
71463;BMP180;59266;52.608;13.260;2024-02-16T13:19:03;100864.00;;;17.50
71463;BMP180;59266;52.608;13.260;2024-02-16T13:21:30;100858.00;;;17.70
71463;BMP180;59266;52.608;13.260;2024-02-16T13:23:57;100863.00;;;18.00
71463;BMP180;59266;52.608;13.260;2024-02-16T13:26:24;100870.00;;;18.30
71463;BMP180;59266;52.608;13.260;2024-02-16T13:28:51;100873.00;;;18.70
71463;BMP180;59266;52.608;13.260;2024-02-16T13:31:20;100871.00;;;18.80
71463;BMP180;59266;52.608;13.260;2024-02-16T13:33:50;100872.00;;;19.00
71463;BMP180;59266;52.608;13.260;2024-02-16T13:36:17;100873.00;;;19.00
71463;BMP180;59266;52.608;13.260;2024-02-16T13:38:43;100881.00;;;18.50
71463;BMP180;59266;52.608;13.260;2024-02-16T13:41:10;100884.00;;;18.70
71463;BMP180;59266;52.608;13.260;2024-02-16T13:43:37;100878.00;;;18.80
71463;BMP180;59266;52.608;13.260;2024-02-16T13:46:05;100871.00;;;18.30
71463;BMP180;59266;52.608;13.260;2024-02-16T13:48:32;100876.00;;;18.30
71463;BMP180;59266;52.608;13.260;2024-02-16T13:50:59;100876.00;;;18.50
71463;BMP180;59266;52.608;13.260;2024-02-16T13:53:26;100877.00;;;18.00